Time;durP1;ratioP1;P1;durP2;ratioP2;P2;SDS_P1;SDS_P2;PMS_P1;PMS_P2;Temp;Humidity;BMP_temperature;BMP_pressure;BME280_temperature;BME280_humidity;BME280_pressure;Samples;Min_cycle;Max_cycle;Signal;HPM_P1;HPM_P2
2019/11/22 00:00:55;;;;;;;30.15;16.4;;;;;;;4.01;99.87012;94440.88;;;;
2019/11/22 00:01:56;;;;;;;30.15;16.4;;;;;;;4.01;99.87012;94440.88;;;;
2019/11/22 00:02:57;;;;;;;30.15;16.4;;;;;;;4.01;99.87012;94440.88;;;;
2019/11/22 00:03:58;;;;;;;30.15;16.4;;;;;;;4.01;99.87012;94440.88;;;;
2019/11/22 00:05:00;;;;;;;30.15;16.4;;;;;;;4.01;99.87012;94440.88;;;;
2019/11/22 00:06:01;;;;;;;30.15;16.4;;;;;;;4.01;99.87012;94440.88;;;;
2019/11/22 00:07:02;;;;;;;29.3;16.4;;;;;;;4.03;100;94437.86;;;;
2019/11/22 00:08:03;;;;;;;29.3;16.4;;;;;;;4.03;100;94437.86;;;;
2019/11/22 00:09:04;;;;;;;29.3;16.4;;;;;;;4.03;100;94437.86;;;;
2019/11/22 00:10:06;;;;;;;29.3;16.4;;;;;;;4.03;100;94437.86;;;;
2019/11/22 00:11:07;;;;;;;29.3;16.4;;;;;;;4.03;100;94437.86;;;;
2019/11/22 00:12:08;;;;;;;29.3;16.4;;;;;;;4.03;100;94437.86;;;;
2019/11/22 00:13:10;;;;;;;29.3;16.4;;;;;;;4.03;100;94437.86;;;;
2019/11/22 00:14:11;;;;;;;29.3;16.4;;;;;;;4.03;100;94437.86;;;;
2019/11/22 00:15:12;;;;;;;29.3;16.4;;;;;;;4.03;100;94437.86;;;;
2019/11/22 00:16:47;;;;;;;29.4;16.45;;;;;;;3.98;100;94442.11;;;;
2019/11/22 00:17:48;;;;;;;29.4;16.45;;;;;;;3.98;100;94442.11;;;;
2019/11/22 00:18:49;;;;;;;29.4;16.45;;;;;;;3.98;100;94442.11;;;;
2019/11/22 00:19:55;;;;;;;29.4;16.45;;;;;;;3.98;100;94442.11;;;;
2019/11/22 00:20:56;;;;;;;29.4;16.45;;;;;;;3.98;100;94442.11;;;;
2019/11/22 00:22:52;;;;;;;29.4;16.45;;;;;;;3.98;100;94442.11;;;;
2019/11/22 00:23:53;;;;;;;29.4;16.45;;;;;;;3.98;100;94442.11;;;;
2019/11/22 00:24:54;;;;;;;29.4;16.45;;;;;;;3.98;100;94442.11;;;;
2019/11/22 00:25:56;;;;;;;29.4;16.45;;;;;;;3.98;100;94442.11;;;;
2019/11/22 00:26:57;;;;;;;29.4;16.45;;;;;;;3.98;100;94442.11;;;;
2019/11/22 00:28:04;;;;;;;34.5;17.3;;;;;;;3.96;100;94439.34;;;;
2019/11/22 00:29:05;;;;;;;34.5;17.3;;;;;;;3.96;100;94439.34;;;;
2019/11/22 00:30:25;;;;;;;34.5;17.3;;;;;;;3.96;100;94439.34;;;;
2019/11/22 00:37:55;;;;;;;34.5;17.3;;;;;;;3.96;100;94439.34;;;;
2019/11/22 00:40:59;;;;;;;32;16.8;;;;;;;3.9;100;94433.56;;;;
2019/11/22 00:42:00;;;;;;;32;16.8;;;;;;;3.9;100;94433.56;;;;
2019/11/22 00:43:02;;;;;;;32;16.8;;;;;;;3.9;100;94433.56;;;;
2019/11/22 00:50:24;;;;;;;31.6;16.1;;;;;;;3.83;100;94429.71;;;;
2019/11/22 00:51:25;;;;;;;31.6;16.1;;;;;;;3.83;100;94429.71;;;;
2019/11/22 00:52:26;;;;;;;31.6;16.1;;;;;;;3.83;100;94429.71;;;;
2019/11/22 00:53:27;;;;;;;31.6;16.1;;;;;;;3.83;100;94429.71;;;;
2019/11/22 00:54:28;;;;;;;31.6;16.1;;;;;;;3.83;100;94429.71;;;;
2019/11/22 00:56:32;;;;;;;31.6;16.1;;;;;;;3.83;100;94429.71;;;;
2019/11/22 00:57:33;;;;;;;31.6;16.1;;;;;;;3.83;100;94429.71;;;;
2019/11/22 00:59:08;;;;;;;31.6;16.1;;;;;;;3.83;100;94429.71;;;;
2019/11/22 01:00:10;;;;;;;35.6;16.9;;;;;;;3.8;100;94443.87;;;;
2019/11/22 01:06:29;;;;;;;35.6;16.9;;;;;;;3.8;100;94443.87;;;;
2019/11/22 01:07:30;;;;;;;35.6;16.9;;;;;;;3.8;100;94443.87;;;;
2019/11/22 01:08:31;;;;;;;35.6;16.9;;;;;;;3.8;100;94443.87;;;;
2019/11/22 01:09:32;;;;;;;35.6;16.9;;;;;;;3.8;100;94443.87;;;;
2019/11/22 01:18:31;;;;;;;31.25;17.25;;;;;;;3.71;100;94429.55;;;;
2019/11/22 01:19:32;;;;;;;31.25;17.25;;;;;;;3.71;100;94429.55;;;;
2019/11/22 01:20:34;;;;;;;45.35;17.3;;;;;;;3.7;100;94412.84;;;;
2019/11/22 01:21:35;;;;;;;45.35;17.3;;;;;;;3.7;100;94412.84;;;;
2019/11/22 01:23:37;;;;;;;45.35;17.3;;;;;;;3.7;100;94412.84;;;;
2019/11/22 01:24:40;;;;;;;45.35;17.3;;;;;;;3.7;100;94412.84;;;;
2019/11/22 01:27:28;;;;;;;45.35;17.3;;;;;;;3.7;100;94412.84;;;;
2019/11/22 01:28:29;;;;;;;45.35;17.3;;;;;;;3.7;100;94412.84;;;;
2019/11/22 01:29:42;;;;;;;45.35;17.3;;;;;;;3.7;100;94412.84;;;;
2019/11/22 01:30:44;;;;;;;45.35;17.3;;;;;;;3.7;100;94412.84;;;;
2019/11/22 01:31:45;;;;;;;44.74999;19.95;;;;;;;3.63;100;94421.41;;;;
2019/11/22 01:32:46;;;;;;;44.74999;19.95;;;;;;;3.63;100;94421.41;;;;
2019/11/22 01:33:47;;;;;;;44.74999;19.95;;;;;;;3.63;100;94421.41;;;;
2019/11/22 01:34:51;;;;;;;44.74999;19.95;;;;;;;3.63;100;94421.41;;;;
2019/11/22 01:35:52;;;;;;;44.74999;19.95;;;;;;;3.63;100;94421.41;;;;
2019/11/22 01:36:53;;;;;;;44.74999;19.95;;;;;;;3.63;100;94421.41;;;;
2019/11/22 01:37:55;;;;;;;44.74999;19.95;;;;;;;3.63;100;94421.41;;;;
2019/11/22 01:38:56;;;;;;;44.74999;19.95;;;;;;;3.63;100;94421.41;;;;
2019/11/22 01:39:57;;;;;;;44.74999;19.95;;;;;;;3.63;100;94421.41;;;;
2019/11/22 01:40:58;;;;;;;44.74999;19.95;;;;;;;3.63;100;94421.41;;;;
2019/11/22 01:41:59;;;;;;;47.3;21.4;;;;;;;3.7;100;94409.25;;;;
2019/11/22 01:43:00;;;;;;;47.3;21.4;;;;;;;3.7;100;94409.25;;;;
2019/11/22 01:44:01;;;;;;;47.3;21.4;;;;;;;3.7;100;94409.25;;;;
2019/11/22 01:45:02;;;;;;;47.3;21.4;;;;;;;3.7;100;94409.25;;;;
2019/11/22 01:46:04;;;;;;;47.3;21.4;;;;;;;3.7;100;94409.25;;;;
2019/11/22 01:47:05;;;;;;;47.3;21.4;;;;;;;3.7;100;94409.25;;;;
2019/11/22 01:48:06;;;;;;;47.3;21.4;;;;;;;3.7;100;94409.25;;;;
2019/11/22 01:49:07;;;;;;;47.3;21.4;;;;;;;3.7;100;94409.25;;;;
2019/11/22 01:50:08;;;;;;;47.3;21.4;;;;;;;3.7;100;94409.25;;;;
2019/11/22 01:51:09;;;;;;;47.3;21.4;;;;;;;3.7;100;94409.25;;;;
2019/11/22 01:52:11;;;;;;;42.45;21.45;;;;;;;3.71;100;94400.19;;;;
2019/11/22 01:53:12;;;;;;;42.45;21.45;;;;;;;3.71;100;94400.19;;;;
2019/11/22 01:54:13;;;;;;;42.45;21.45;;;;;;;3.71;100;94400.19;;;;
2019/11/22 01:55:14;;;;;;;42.45;21.45;;;;;;;3.71;100;94400.19;;;;
2019/11/22 01:56:15;;;;;;;42.45;21.45;;;;;;;3.71;100;94400.19;;;;
2019/11/22 01:57:16;;;;;;;42.45;21.45;;;;;;;3.71;100;94400.19;;;;
2019/11/22 01:58:17;;;;;;;42.45;21.45;;;;;;;3.71;100;94400.19;;;;
2019/11/22 01:59:18;;;;;;;42.45;21.45;;;;;;;3.71;100;94400.19;;;;
2019/11/22 02:00:20;;;;;;;42.45;21.45;;;;;;;3.71;100;94400.19;;;;
2019/11/22 02:01:21;;;;;;;42.45;21.45;;;;;;;3.71;100;94400.19;;;;
2019/11/22 02:02:22;;;;;;;42.45;21.45;;;;;;;3.71;100;94400.19;;;;
2019/11/22 02:03:23;;;;;;;44.80001;20.3;;;;;;;3.75;100;94398.32;;;;
2019/11/22 02:04:24;;;;;;;44.80001;20.3;;;;;;;3.75;100;94398.32;;;;
2019/11/22 02:05:25;;;;;;;44.80001;20.3;;;;;;;3.75;100;94398.32;;;;
2019/11/22 02:06:27;;;;;;;44.80001;20.3;;;;;;;3.75;100;94398.32;;;;
2019/11/22 02:07:28;;;;;;;44.80001;20.3;;;;;;;3.75;100;94398.32;;;;
2019/11/22 02:08:29;;;;;;;44.80001;20.3;;;;;;;3.75;100;94398.32;;;;
2019/11/22 02:09:30;;;;;;;44.80001;20.3;;;;;;;3.75;100;94398.32;;;;
2019/11/22 02:10:31;;;;;;;44.80001;20.3;;;;;;;3.75;100;94398.32;;;;
2019/11/22 02:11:33;;;;;;;44.80001;20.3;;;;;;;3.75;100;94398.32;;;;
2019/11/22 02:12:34;;;;;;;44.80001;20.3;;;;;;;3.75;100;94398.32;;;;
2019/11/22 02:13:35;;;;;;;46.99999;22.45;;;;;;;3.68;100;94385.96;;;;
2019/11/22 02:14:36;;;;;;;46.99999;22.45;;;;;;;3.68;100;94385.96;;;;
2019/11/22 02:15:37;;;;;;;46.99999;22.45;;;;;;;3.68;100;94385.96;;;;
2019/11/22 02:16:41;;;;;;;46.99999;22.45;;;;;;;3.68;100;94385.96;;;;
2019/11/22 02:17:48;;;;;;;46.99999;22.45;;;;;;;3.68;100;94385.96;;;;
2019/11/22 02:18:57;;;;;;;46.99999;22.45;;;;;;;3.68;100;94385.96;;;;
2019/11/22 02:19:59;;;;;;;46.99999;22.45;;;;;;;3.68;100;94385.96;;;;
2019/11/22 02:21:00;;;;;;;46.99999;22.45;;;;;;;3.68;100;94385.96;;;;
2019/11/22 02:22:01;;;;;;;46.99999;22.45;;;;;;;3.68;100;94385.96;;;;
2019/11/22 02:23:02;;;;;;;46.99999;22.45;;;;;;;3.68;100;94385.96;;;;
2019/11/22 02:24:04;;;;;;;40.15;20.75;;;;;;;3.75;100;94384.98;;;;
2019/11/22 02:25:05;;;;;;;40.15;20.75;;;;;;;3.75;100;94384.98;;;;
2019/11/22 02:26:07;;;;;;;40.15;20.75;;;;;;;3.75;100;94384.98;;;;
2019/11/22 02:27:08;;;;;;;40.15;20.75;;;;;;;3.75;100;94384.98;;;;
2019/11/22 02:28:09;;;;;;;40.15;20.75;;;;;;;3.75;100;94384.98;;;;
2019/11/22 02:29:10;;;;;;;40.15;20.75;;;;;;;3.75;100;94384.98;;;;
2019/11/22 02:30:12;;;;;;;40.15;20.75;;;;;;;3.75;100;94384.98;;;;
2019/11/22 02:31:35;;;;;;;40.15;20.75;;;;;;;3.75;100;94384.98;;;;
2019/11/22 02:32:44;;;;;;;40.15;20.75;;;;;;;3.75;100;94384.98;;;;
2019/11/22 02:33:45;;;;;;;40.15;20.75;;;;;;;3.75;100;94384.98;;;;
2019/11/22 02:34:47;;;;;;;39.80001;20.55;;;;;;;3.76;100;94396.77;;;;
2019/11/22 02:35:48;;;;;;;39.80001;20.55;;;;;;;3.76;100;94396.77;;;;
2019/11/22 02:36:49;;;;;;;39.80001;20.55;;;;;;;3.76;100;94396.77;;;;
2019/11/22 02:37:51;;;;;;;39.80001;20.55;;;;;;;3.76;100;94396.77;;;;
2019/11/22 02:38:52;;;;;;;39.80001;20.55;;;;;;;3.76;100;94396.77;;;;
2019/11/22 02:39:53;;;;;;;39.80001;20.55;;;;;;;3.76;100;94396.77;;;;
2019/11/22 02:40:54;;;;;;;39.80001;20.55;;;;;;;3.76;100;94396.77;;;;
2019/11/22 02:41:55;;;;;;;39.80001;20.55;;;;;;;3.76;100;94396.77;;;;
2019/11/22 02:42:56;;;;;;;39.80001;20.55;;;;;;;3.76;100;94396.77;;;;
2019/11/22 02:43:58;;;;;;;39.80001;20.55;;;;;;;3.76;100;94396.77;;;;
2019/11/22 02:44:59;;;;;;;39.80001;20.55;;;;;;;3.76;100;94396.77;;;;
2019/11/22 02:46:00;;;;;;;38.45;19.75;;;;;;;3.8;100;94397.99;;;;
2019/11/22 02:47:01;;;;;;;38.45;19.75;;;;;;;3.8;100;94397.99;;;;
2019/11/22 02:48:02;;;;;;;38.45;19.75;;;;;;;3.8;100;94397.99;;;;
2019/11/22 02:49:04;;;;;;;38.45;19.75;;;;;;;3.8;100;94397.99;;;;
2019/11/22 02:50:05;;;;;;;38.45;19.75;;;;;;;3.8;100;94397.99;;;;
2019/11/22 02:51:06;;;;;;;38.45;19.75;;;;;;;3.8;100;94397.99;;;;
2019/11/22 02:52:45;;;;;;;38.45;19.75;;;;;;;3.8;100;94397.99;;;;
2019/11/22 02:54:50;;;;;;;38.45;19.75;;;;;;;3.8;100;94397.99;;;;
2019/11/22 02:55:59;;;;;;;41.05;20.15;;;;;;;3.73;100;94396.8;;;;
2019/11/22 02:57:08;;;;;;;41.05;20.15;;;;;;;3.73;100;94396.8;;;;
2019/11/22 02:58:17;;;;;;;41.05;20.15;;;;;;;3.73;100;94396.8;;;;
2019/11/22 02:59:19;;;;;;;41.05;20.15;;;;;;;3.73;100;94396.8;;;;
2019/11/22 03:00:20;;;;;;;41.05;20.15;;;;;;;3.73;100;94396.8;;;;
2019/11/22 03:01:22;;;;;;;41.05;20.15;;;;;;;3.73;100;94396.8;;;;
2019/11/22 03:02:23;;;;;;;41.05;20.15;;;;;;;3.73;100;94396.8;;;;
2019/11/22 03:03:24;;;;;;;41.05;20.15;;;;;;;3.73;100;94396.8;;;;
2019/11/22 03:04:25;;;;;;;41.05;20.15;;;;;;;3.73;100;94396.8;;;;
2019/11/22 03:05:27;;;;;;;41.05;20.15;;;;;;;3.73;100;94396.8;;;;
2019/11/22 03:06:28;;;;;;;35.3;19.5;;;;;;;3.73;100;94395.04;;;;
2019/11/22 03:07:29;;;;;;;35.3;19.5;;;;;;;3.73;100;94395.04;;;;
2019/11/22 03:08:30;;;;;;;35.3;19.5;;;;;;;3.73;100;94395.04;;;;
2019/11/22 03:09:31;;;;;;;35.3;19.5;;;;;;;3.73;100;94395.04;;;;
2019/11/22 03:10:33;;;;;;;35.3;19.5;;;;;;;3.73;100;94395.04;;;;
2019/11/22 03:11:34;;;;;;;35.3;19.5;;;;;;;3.73;100;94395.04;;;;
2019/11/22 03:12:35;;;;;;;35.3;19.5;;;;;;;3.73;100;94395.04;;;;
2019/11/22 03:13:36;;;;;;;35.3;19.5;;;;;;;3.73;100;94395.04;;;;
2019/11/22 03:14:37;;;;;;;35.3;19.5;;;;;;;3.73;100;94395.04;;;;
2019/11/22 03:15:38;;;;;;;35.3;19.5;;;;;;;3.73;100;94395.04;;;;
2019/11/22 03:16:40;;;;;;;35.3;19.5;;;;;;;3.73;100;94395.04;;;;
2019/11/22 03:17:41;;;;;;;33.5;19.1;;;;;;;3.66;100;94393.77;;;;
2019/11/22 03:18:43;;;;;;;33.5;19.1;;;;;;;3.66;100;94393.77;;;;
2019/11/22 03:19:44;;;;;;;33.5;19.1;;;;;;;3.66;100;94393.77;;;;
2019/11/22 03:20:45;;;;;;;33.5;19.1;;;;;;;3.66;100;94393.77;;;;
2019/11/22 03:21:46;;;;;;;33.5;19.1;;;;;;;3.66;100;94393.77;;;;
2019/11/22 03:22:47;;;;;;;33.5;19.1;;;;;;;3.66;100;94393.77;;;;
2019/11/22 03:23:48;;;;;;;33.5;19.1;;;;;;;3.66;100;94393.77;;;;
2019/11/22 03:24:50;;;;;;;33.5;19.1;;;;;;;3.66;100;94393.77;;;;
2019/11/22 03:25:51;;;;;;;33.5;19.1;;;;;;;3.66;100;94393.77;;;;
2019/11/22 03:26:52;;;;;;;33.5;19.1;;;;;;;3.66;100;94393.77;;;;
2019/11/22 03:27:53;;;;;;;31.95;18.65;;;;;;;3.69;100;94401.34;;;;
2019/11/22 03:28:54;;;;;;;31.95;18.65;;;;;;;3.69;100;94401.34;;;;
2019/11/22 03:29:56;;;;;;;31.95;18.65;;;;;;;3.69;100;94401.34;;;;
2019/11/22 03:30:57;;;;;;;31.95;18.65;;;;;;;3.69;100;94401.34;;;;
2019/11/22 03:31:58;;;;;;;31.95;18.65;;;;;;;3.69;100;94401.34;;;;
2019/11/22 03:32:59;;;;;;;31.95;18.65;;;;;;;3.69;100;94401.34;;;;
2019/11/22 03:34:00;;;;;;;31.95;18.65;;;;;;;3.69;100;94401.34;;;;
2019/11/22 03:35:01;;;;;;;31.95;18.65;;;;;;;3.69;100;94401.34;;;;
2019/11/22 03:36:03;;;;;;;31.95;18.65;;;;;;;3.69;100;94401.34;;;;
2019/11/22 03:37:04;;;;;;;31.95;18.65;;;;;;;3.69;100;94401.34;;;;
2019/11/22 03:38:05;;;;;;;31.95;18.65;;;;;;;3.69;100;94401.34;;;;
2019/11/22 03:39:06;;;;;;;39.25;20.35;;;;;;;3.64;100;94411.02;;;;
2019/11/22 03:40:07;;;;;;;39.25;20.35;;;;;;;3.64;100;94411.02;;;;
2019/11/22 03:41:08;;;;;;;39.25;20.35;;;;;;;3.64;100;94411.02;;;;
2019/11/22 03:42:12;;;;;;;39.25;20.35;;;;;;;3.64;100;94411.02;;;;
2019/11/22 03:43:19;;;;;;;39.25;20.35;;;;;;;3.64;100;94411.02;;;;
2019/11/22 03:44:21;;;;;;;39.25;20.35;;;;;;;3.64;100;94411.02;;;;
2019/11/22 03:45:27;;;;;;;39.25;20.35;;;;;;;3.64;100;94411.02;;;;
2019/11/22 03:46:28;;;;;;;39.25;20.35;;;;;;;3.64;100;94411.02;;;;
2019/11/22 03:47:32;;;;;;;39.25;20.35;;;;;;;3.64;100;94411.02;;;;
2019/11/22 03:48:33;;;;;;;39.25;20.35;;;;;;;3.64;100;94411.02;;;;
2019/11/22 03:49:35;;;;;;;36.95;20.7;;;;;;;3.67;100;94405.27;;;;
2019/11/22 03:50:39;;;;;;;36.95;20.7;;;;;;;3.67;100;94405.27;;;;
2019/11/22 03:51:41;;;;;;;36.95;20.7;;;;;;;3.67;100;94405.27;;;;
2019/11/22 03:52:48;;;;;;;36.95;20.7;;;;;;;3.67;100;94405.27;;;;
2019/11/22 03:54:00;;;;;;;36.95;20.7;;;;;;;3.67;100;94405.27;;;;
2019/11/22 03:55:04;;;;;;;36.95;20.7;;;;;;;3.67;100;94405.27;;;;
2019/11/22 03:56:09;;;;;;;36.95;20.7;;;;;;;3.67;100;94405.27;;;;
2019/11/22 03:57:18;;;;;;;36.95;20.7;;;;;;;3.67;100;94405.27;;;;
2019/11/22 03:58:34;;;;;;;36.95;20.7;;;;;;;3.67;100;94405.27;;;;
2019/11/22 03:59:40;;;;;;;37.15;19.85;;;;;;;3.65;100;94416.67;;;;
2019/11/22 04:00:44;;;;;;;37.15;19.85;;;;;;;3.65;100;94416.67;;;;
2019/11/22 04:01:46;;;;;;;37.15;19.85;;;;;;;3.65;100;94416.67;;;;
2019/11/22 04:02:47;;;;;;;37.15;19.85;;;;;;;3.65;100;94416.67;;;;
2019/11/22 04:03:48;;;;;;;37.15;19.85;;;;;;;3.65;100;94416.67;;;;
2019/11/22 04:04:50;;;;;;;37.15;19.85;;;;;;;3.65;100;94416.67;;;;
2019/11/22 04:05:51;;;;;;;37.15;19.85;;;;;;;3.65;100;94416.67;;;;
2019/11/22 04:06:52;;;;;;;37.15;19.85;;;;;;;3.65;100;94416.67;;;;
2019/11/22 04:07:53;;;;;;;37.15;19.85;;;;;;;3.65;100;94416.67;;;;
2019/11/22 04:08:54;;;;;;;37.15;19.85;;;;;;;3.65;100;94416.67;;;;
2019/11/22 04:09:55;;;;;;;37.15;19.85;;;;;;;3.65;100;94416.67;;;;
2019/11/22 04:10:56;;;;;;;32.7;19.6;;;;;;;3.67;100;94428.75;;;;
2019/11/22 04:11:58;;;;;;;32.7;19.6;;;;;;;3.67;100;94428.75;;;;
2019/11/22 04:12:59;;;;;;;32.7;19.6;;;;;;;3.67;100;94428.75;;;;
2019/11/22 04:14:01;;;;;;;32.7;19.6;;;;;;;3.67;100;94428.75;;;;
2019/11/22 04:15:02;;;;;;;32.7;19.6;;;;;;;3.67;100;94428.75;;;;
2019/11/22 04:16:03;;;;;;;32.7;19.6;;;;;;;3.67;100;94428.75;;;;
2019/11/22 04:17:05;;;;;;;32.7;19.6;;;;;;;3.67;100;94428.75;;;;
2019/11/22 04:18:06;;;;;;;32.7;19.6;;;;;;;3.67;100;94428.75;;;;
2019/11/22 04:19:07;;;;;;;32.7;19.6;;;;;;;3.67;100;94428.75;;;;
2019/11/22 04:20:08;;;;;;;32.7;19.6;;;;;;;3.67;100;94428.75;;;;
2019/11/22 04:21:09;;;;;;;34.2;19.45;;;;;;;3.65;100;94422.43;;;;
2019/11/22 04:22:11;;;;;;;34.2;19.45;;;;;;;3.65;100;94422.43;;;;
2019/11/22 04:23:12;;;;;;;34.2;19.45;;;;;;;3.65;100;94422.43;;;;
2019/11/22 04:24:13;;;;;;;34.2;19.45;;;;;;;3.65;100;94422.43;;;;
2019/11/22 04:25:16;;;;;;;34.2;19.45;;;;;;;3.65;100;94422.43;;;;
2019/11/22 04:26:18;;;;;;;34.2;19.45;;;;;;;3.65;100;94422.43;;;;
2019/11/22 04:27:26;;;;;;;34.2;19.45;;;;;;;3.65;100;94422.43;;;;
2019/11/22 04:28:32;;;;;;;34.2;19.45;;;;;;;3.65;100;94422.43;;;;
2019/11/22 04:29:50;;;;;;;34.2;19.45;;;;;;;3.65;100;94422.43;;;;
2019/11/22 04:31:01;;;;;;;34.2;19.45;;;;;;;3.65;100;94422.43;;;;
2019/11/22 04:32:30;;;;;;;34.64999;19.45;;;;;;;3.69;100;94436.45;;;;
2019/11/22 04:33:40;;;;;;;34.64999;19.45;;;;;;;3.69;100;94436.45;;;;
2019/11/22 04:34:46;;;;;;;34.64999;19.45;;;;;;;3.69;100;94436.45;;;;
2019/11/22 04:36:03;;;;;;;34.64999;19.45;;;;;;;3.69;100;94436.45;;;;
2019/11/22 04:37:11;;;;;;;34.64999;19.45;;;;;;;3.69;100;94436.45;;;;
2019/11/22 04:38:28;;;;;;;34.64999;19.45;;;;;;;3.69;100;94436.45;;;;
2019/11/22 04:40:07;;;;;;;34.64999;19.45;;;;;;;3.69;100;94436.45;;;;
2019/11/22 04:41:13;;;;;;;34.64999;19.45;;;;;;;3.69;100;94436.45;;;;
2019/11/22 04:42:17;;;;;;;38.5;20.6;;;;;;;3.63;100;94422.24;;;;
2019/11/22 04:43:20;;;;;;;38.5;20.6;;;;;;;3.63;100;94422.24;;;;
2019/11/22 04:44:26;;;;;;;38.5;20.6;;;;;;;3.63;100;94422.24;;;;
2019/11/22 04:45:29;;;;;;;38.5;20.6;;;;;;;3.63;100;94422.24;;;;
2019/11/22 04:46:36;;;;;;;38.5;20.6;;;;;;;3.63;100;94422.24;;;;
2019/11/22 04:47:39;;;;;;;38.5;20.6;;;;;;;3.63;100;94422.24;;;;
2019/11/22 04:48:41;;;;;;;38.5;20.6;;;;;;;3.63;100;94422.24;;;;
2019/11/22 04:49:42;;;;;;;38.5;20.6;;;;;;;3.63;100;94422.24;;;;
2019/11/22 04:50:44;;;;;;;38.5;20.6;;;;;;;3.63;100;94422.24;;;;
2019/11/22 04:51:46;;;;;;;38.5;20.6;;;;;;;3.63;100;94422.24;;;;
2019/11/22 04:52:49;;;;;;;39.85;21.55;;;;;;;3.56;100;94449.06;;;;
2019/11/22 04:53:51;;;;;;;39.85;21.55;;;;;;;3.56;100;94449.06;;;;
2019/11/22 04:54:53;;;;;;;39.85;21.55;;;;;;;3.56;100;94449.06;;;;
2019/11/22 04:55:54;;;;;;;39.85;21.55;;;;;;;3.56;100;94449.06;;;;
2019/11/22 04:56:55;;;;;;;39.85;21.55;;;;;;;3.56;100;94449.06;;;;
2019/11/22 04:57:56;;;;;;;39.85;21.55;;;;;;;3.56;100;94449.06;;;;
2019/11/22 04:58:58;;;;;;;39.85;21.55;;;;;;;3.56;100;94449.06;;;;
2019/11/22 04:59:59;;;;;;;39.85;21.55;;;;;;;3.56;100;94449.06;;;;
2019/11/22 05:01:00;;;;;;;39.85;21.55;;;;;;;3.56;100;94449.06;;;;
2019/11/22 05:02:01;;;;;;;39.85;21.55;;;;;;;3.56;100;94449.06;;;;
2019/11/22 05:03:02;;;;;;;39.8;21.4;;;;;;;3.6;100;94423.19;;;;
2019/11/22 05:04:03;;;;;;;39.8;21.4;;;;;;;3.6;100;94423.19;;;;
2019/11/22 05:05:04;;;;;;;39.8;21.4;;;;;;;3.6;100;94423.19;;;;
2019/11/22 05:06:05;;;;;;;39.8;21.4;;;;;;;3.6;100;94423.19;;;;
2019/11/22 05:07:07;;;;;;;39.8;21.4;;;;;;;3.6;100;94423.19;;;;
2019/11/22 05:08:08;;;;;;;39.8;21.4;;;;;;;3.6;100;94423.19;;;;
2019/11/22 05:09:09;;;;;;;39.8;21.4;;;;;;;3.6;100;94423.19;;;;
2019/11/22 05:10:10;;;;;;;39.8;21.4;;;;;;;3.6;100;94423.19;;;;
2019/11/22 05:11:11;;;;;;;39.8;21.4;;;;;;;3.6;100;94423.19;;;;
2019/11/22 05:12:13;;;;;;;39.8;21.4;;;;;;;3.6;100;94423.19;;;;
2019/11/22 05:13:14;;;;;;;39.8;21.4;;;;;;;3.6;100;94423.19;;;;
2019/11/22 05:14:15;;;;;;;40.14999;21.3;;;;;;;3.59;100;94430.87;;;;
2019/11/22 05:15:16;;;;;;;40.14999;21.3;;;;;;;3.59;100;94430.87;;;;
2019/11/22 05:16:17;;;;;;;40.14999;21.3;;;;;;;3.59;100;94430.87;;;;
2019/11/22 05:17:18;;;;;;;40.14999;21.3;;;;;;;3.59;100;94430.87;;;;
2019/11/22 05:18:19;;;;;;;40.14999;21.3;;;;;;;3.59;100;94430.87;;;;
2019/11/22 05:19:20;;;;;;;40.14999;21.3;;;;;;;3.59;100;94430.87;;;;
2019/11/22 05:20:21;;;;;;;40.14999;21.3;;;;;;;3.59;100;94430.87;;;;
2019/11/22 05:21:23;;;;;;;40.14999;21.3;;;;;;;3.59;100;94430.87;;;;
2019/11/22 05:22:24;;;;;;;40.14999;21.3;;;;;;;3.59;100;94430.87;;;;
2019/11/22 05:23:25;;;;;;;40.14999;21.3;;;;;;;3.59;100;94430.87;;;;
2019/11/22 05:24:26;;;;;;;44.4;22.05;;;;;;;3.64;100;94431.03;;;;
2019/11/22 05:25:33;;;;;;;44.4;22.05;;;;;;;3.64;100;94431.03;;;;
2019/11/22 05:26:42;;;;;;;44.4;22.05;;;;;;;3.64;100;94431.03;;;;
2019/11/22 05:27:48;;;;;;;44.4;22.05;;;;;;;3.64;100;94431.03;;;;
2019/11/22 05:28:50;;;;;;;44.4;22.05;;;;;;;3.64;100;94431.03;;;;
2019/11/22 05:29:52;;;;;;;44.4;22.05;;;;;;;3.64;100;94431.03;;;;
2019/11/22 05:30:53;;;;;;;44.4;22.05;;;;;;;3.64;100;94431.03;;;;
2019/11/22 05:31:59;;;;;;;44.4;22.05;;;;;;;3.64;100;94431.03;;;;
2019/11/22 05:33:00;;;;;;;44.4;22.05;;;;;;;3.64;100;94431.03;;;;
2019/11/22 05:34:02;;;;;;;44.4;22.05;;;;;;;3.64;100;94431.03;;;;
2019/11/22 05:35:04;;;;;;;43.15;21.7;;;;;;;3.58;100;94433.65;;;;
2019/11/22 05:36:05;;;;;;;43.15;21.7;;;;;;;3.58;100;94433.65;;;;
2019/11/22 05:37:06;;;;;;;43.15;21.7;;;;;;;3.58;100;94433.65;;;;
2019/11/22 05:38:14;;;;;;;43.15;21.7;;;;;;;3.58;100;94433.65;;;;
2019/11/22 05:39:16;;;;;;;43.15;21.7;;;;;;;3.58;100;94433.65;;;;
2019/11/22 05:40:17;;;;;;;43.15;21.7;;;;;;;3.58;100;94433.65;;;;
2019/11/22 05:41:38;;;;;;;43.15;21.7;;;;;;;3.58;100;94433.65;;;;
2019/11/22 05:42:39;;;;;;;43.15;21.7;;;;;;;3.58;100;94433.65;;;;
2019/11/22 05:43:42;;;;;;;43.15;21.7;;;;;;;3.58;100;94433.65;;;;
2019/11/22 05:44:44;;;;;;;43.15;21.7;;;;;;;3.58;100;94433.65;;;;
2019/11/22 05:45:59;;;;;;;41.45;22.15;;;;;;;3.59;100;94433.53;;;;
2019/11/22 05:47:03;;;;;;;41.45;22.15;;;;;;;3.59;100;94433.53;;;;
2019/11/22 05:48:04;;;;;;;41.45;22.15;;;;;;;3.59;100;94433.53;;;;
2019/11/22 05:49:05;;;;;;;41.45;22.15;;;;;;;3.59;100;94433.53;;;;
2019/11/22 05:50:07;;;;;;;41.45;22.15;;;;;;;3.59;100;94433.53;;;;
2019/11/22 05:51:08;;;;;;;41.45;22.15;;;;;;;3.59;100;94433.53;;;;
2019/11/22 05:52:09;;;;;;;41.45;22.15;;;;;;;3.59;100;94433.53;;;;
2019/11/22 05:53:10;;;;;;;41.45;22.15;;;;;;;3.59;100;94433.53;;;;
2019/11/22 05:54:11;;;;;;;41.45;22.15;;;;;;;3.59;100;94433.53;;;;
2019/11/22 05:55:12;;;;;;;41.45;22.15;;;;;;;3.59;100;94433.53;;;;
2019/11/22 05:56:13;;;;;;;39.7;20.25;;;;;;;3.54;100;94445.79;;;;
2019/11/22 05:57:15;;;;;;;39.7;20.25;;;;;;;3.54;100;94445.79;;;;
2019/11/22 05:58:16;;;;;;;39.7;20.25;;;;;;;3.54;100;94445.79;;;;
2019/11/22 05:59:17;;;;;;;39.7;20.25;;;;;;;3.54;100;94445.79;;;;
2019/11/22 06:00:18;;;;;;;39.7;20.25;;;;;;;3.54;100;94445.79;;;;
2019/11/22 06:01:19;;;;;;;39.7;20.25;;;;;;;3.54;100;94445.79;;;;
2019/11/22 06:02:20;;;;;;;39.7;20.25;;;;;;;3.54;100;94445.79;;;;
2019/11/22 06:03:31;;;;;;;39.7;20.25;;;;;;;3.54;100;94445.79;;;;
2019/11/22 06:04:32;;;;;;;39.7;20.25;;;;;;;3.54;100;94445.79;;;;
2019/11/22 06:05:33;;;;;;;39.7;20.25;;;;;;;3.54;100;94445.79;;;;
2019/11/22 06:06:34;;;;;;;39.7;20.25;;;;;;;3.54;100;94445.79;;;;
2019/11/22 06:07:35;;;;;;;35.75001;20.7;;;;;;;3.59;100;94441.03;;;;
2019/11/22 06:08:36;;;;;;;35.75001;20.7;;;;;;;3.59;100;94441.03;;;;
2019/11/22 06:09:37;;;;;;;35.75001;20.7;;;;;;;3.59;100;94441.03;;;;
2019/11/22 06:10:38;;;;;;;35.75001;20.7;;;;;;;3.59;100;94441.03;;;;
2019/11/22 06:11:41;;;;;;;35.75001;20.7;;;;;;;3.59;100;94441.03;;;;
2019/11/22 06:12:42;;;;;;;35.75001;20.7;;;;;;;3.59;100;94441.03;;;;
2019/11/22 06:13:43;;;;;;;35.75001;20.7;;;;;;;3.59;100;94441.03;;;;
2019/11/22 06:14:44;;;;;;;35.75001;20.7;;;;;;;3.59;100;94441.03;;;;
2019/11/22 06:15:45;;;;;;;35.75001;20.7;;;;;;;3.59;100;94441.03;;;;
2019/11/22 06:16:51;;;;;;;35.75001;20.7;;;;;;;3.59;100;94441.03;;;;
2019/11/22 06:17:52;;;;;;;38.3;20.2;;;;;;;3.59;100;94445.54;;;;
2019/11/22 06:18:53;;;;;;;38.3;20.2;;;;;;;3.59;100;94445.54;;;;
2019/11/22 06:19:54;;;;;;;38.3;20.2;;;;;;;3.59;100;94445.54;;;;
2019/11/22 06:20:55;;;;;;;38.3;20.2;;;;;;;3.59;100;94445.54;;;;
2019/11/22 06:21:58;;;;;;;38.3;20.2;;;;;;;3.59;100;94445.54;;;;
2019/11/22 06:22:59;;;;;;;38.3;20.2;;;;;;;3.59;100;94445.54;;;;
2019/11/22 06:24:00;;;;;;;38.3;20.2;;;;;;;3.59;100;94445.54;;;;
2019/11/22 06:25:02;;;;;;;38.3;20.2;;;;;;;3.59;100;94445.54;;;;
2019/11/22 06:26:03;;;;;;;38.3;20.2;;;;;;;3.59;100;94445.54;;;;
2019/11/22 06:27:04;;;;;;;38.3;20.2;;;;;;;3.59;100;94445.54;;;;
2019/11/22 06:28:05;;;;;;;36.45;20.85;;;;;;;3.67;100;94461.33;;;;
2019/11/22 06:29:06;;;;;;;36.45;20.85;;;;;;;3.67;100;94461.33;;;;
2019/11/22 06:30:08;;;;;;;36.45;20.85;;;;;;;3.67;100;94461.33;;;;
2019/11/22 06:31:09;;;;;;;36.45;20.85;;;;;;;3.67;100;94461.33;;;;
2019/11/22 06:32:10;;;;;;;36.45;20.85;;;;;;;3.67;100;94461.33;;;;
2019/11/22 06:33:11;;;;;;;36.45;20.85;;;;;;;3.67;100;94461.33;;;;
2019/11/22 06:34:12;;;;;;;36.45;20.85;;;;;;;3.67;100;94461.33;;;;
2019/11/22 06:35:13;;;;;;;36.45;20.85;;;;;;;3.67;100;94461.33;;;;
2019/11/22 06:36:14;;;;;;;36.45;20.85;;;;;;;3.67;100;94461.33;;;;
2019/11/22 06:37:15;;;;;;;36.45;20.85;;;;;;;3.67;100;94461.33;;;;
2019/11/22 06:38:16;;;;;;;36.45;20.85;;;;;;;3.67;100;94461.33;;;;
2019/11/22 06:39:18;;;;;;;39.05;21.1;;;;;;;3.68;100;94456.27;;;;
2019/11/22 06:40:19;;;;;;;39.05;21.1;;;;;;;3.68;100;94456.27;;;;
2019/11/22 06:41:42;;;;;;;39.05;21.1;;;;;;;3.68;100;94456.27;;;;
2019/11/22 06:42:43;;;;;;;39.05;21.1;;;;;;;3.68;100;94456.27;;;;
2019/11/22 06:43:44;;;;;;;39.05;21.1;;;;;;;3.68;100;94456.27;;;;
2019/11/22 06:44:46;;;;;;;39.05;21.1;;;;;;;3.68;100;94456.27;;;;
2019/11/22 06:45:47;;;;;;;39.05;21.1;;;;;;;3.68;100;94456.27;;;;
2019/11/22 06:46:50;;;;;;;39.05;21.1;;;;;;;3.68;100;94456.27;;;;
2019/11/22 06:47:51;;;;;;;39.05;21.1;;;;;;;3.68;100;94456.27;;;;
2019/11/22 06:48:52;;;;;;;39.05;21.1;;;;;;;3.68;100;94456.27;;;;
2019/11/22 06:49:53;;;;;;;37.15;20.85;;;;;;;3.76;100;94463.64;;;;
2019/11/22 06:50:54;;;;;;;37.15;20.85;;;;;;;3.76;100;94463.64;;;;
2019/11/22 06:51:55;;;;;;;37.15;20.85;;;;;;;3.76;100;94463.64;;;;
2019/11/22 06:52:56;;;;;;;37.15;20.85;;;;;;;3.76;100;94463.64;;;;